Portada
METAR-TAF:

METAR-TAF

Aeropuertos :

Aeropuerto de Roma-Fiumicino

Roma-Fiumicino, Italia

latitud: 41-48N, longitud: 012-14E, altitud: 2 m

Observación

El informe se hizo hace 43 minutos, a las 08:50 UTC
Viento 9 kt del noreste
Temperatura 13°C
Humedad 54%
Presión 1019 hPa
Visibilidad 10 km o más
sin nubes por debajo de 1500 m y sin presencia de cumulonimbus.

METAR: LIRF 170850Z 05009KT CAVOK 13/04 Q1019 NOSIG

Hora: 10:33 (09:33 UTC)

Pronóstico

El informe se hizo hace 4 horas y 33 minutos, a las 05:00 UTC
Pronóstico válido del 17 a las 06 UTC al 18 a las 12 UTC
Viento 12 kt del noreste
Visibilidad 10 km o más
Escasas nubes a una altura de 4000 ft

TAF: LIRF 170500Z 1706/1812 04012KT 9999 FEW040

Observaciones y pronósticos meteorológicos de más de 4000 aeropuertos (mensajes METAR y TAF).

Los puntos amarillos y rojos representan las estaciones disponibles.

Ponga el ratón en el punto deseado para ver el nombre de la estación.

Haga clic para ver las observaciones y los pronósticos meteorológicos.

Para cambiar el mapa : haga clic en los botones verdes con una cruz de color negro para hacer un zoom, en el botón verde con un guión para alejar o en las flechas verdes para mapas adyacentes.


METAR-TAF: